Time;durP1;ratioP1;P1;durP2;ratioP2;P2;SDS_P1;SDS_P2;PMS_P1;PMS_P2;Temp;Humidity;BMP_temperature;BMP_pressure;BME280_temperature;BME280_humidity;BME280_pressure;Samples;Min_cycle;Max_cycle;Signal;HPM_P1;HPM_P2
2023/01/28 00:00:49;;;;;;;9.63;6.05;;;0.40;85.00;;;;;;5013852;28;20030;-48
2023/01/28 00:03:20;;;;;;;8.70;6.07;;;0.30;85.10;;;;;;5013981;28;20064;-46
2023/01/28 00:05:45;;;;;;;;;;;0.20;85.20;;;;;;5013923;28;20108;-47
2023/01/28 00:08:14;;;;;;;8.70;6.63;;;0.20;85.20;;;;;;5013444;28;20029;-48
2023/01/28 00:10:41;;;;;;;9.30;6.57;;;0.20;85.20;;;;;;5028552;28;20050;-48
2023/01/28 00:13:15;;;;;;;8.02;6.28;;;0.10;85.40;;;;;;5013508;28;20037;-47
2023/01/28 00:15:43;;;;;;;9.02;6.03;;;0.10;85.50;;;;;;5012446;28;20038;-48
2023/01/28 00:18:12;;;;;;;8.50;6.80;;;0.00;85.40;;;;;;5013267;28;20018;-45
2023/01/28 00:20:39;;;;;;;8.23;6.78;;;0.00;85.50;;;;;;5012879;28;20032;-47
2023/01/28 00:23:06;;;;;;;8.63;7.57;;;0.00;85.60;;;;;;5012458;28;20458;-48
2023/01/28 00:25:36;;;;;;;8.43;7.57;;;0.00;85.60;;;;;;5013450;28;20037;-50
2023/01/28 00:28:01;;;;;;;7.82;7.00;;;0.00;85.70;;;;;;5013297;28;20439;-47
2023/01/28 00:30:28;;;;;;;7.80;6.72;;;-3276.70;85.90;;;;;;5013247;28;20034;-50
2023/01/28 00:32:55;;;;;;;8.68;6.55;;;-3276.70;85.90;;;;;;5013134;28;20444;-48
2023/01/28 00:35:22;;;;;;;8.75;7.18;;;-3276.60;85.70;;;;;;5013104;28;20030;-47
2023/01/28 00:37:52;;;;;;;8.48;6.68;;;-3276.50;86.00;;;;;;5013255;28;20018;-49
2023/01/28 00:40:18;;;;;;;;;;;-3276.50;86.20;;;;;;5013678;28;20495;-51
2023/01/28 00:42:51;;;;;;;8.75;6.95;;;-3276.50;86.30;;;;;;5027874;28;19915;-51
2023/01/28 00:45:19;;;;;;;8.30;7.22;;;-3276.50;86.30;;;;;;5041553;28;20037;-49
2023/01/28 00:47:47;;;;;;;8.70;7.10;;;-3276.50;86.30;;;;;;5021289;28;20131;-47
2023/01/28 00:50:14;;;;;;;7.95;6.72;;;-3276.40;86.20;;;;;;5032493;28;20045;-49
2023/01/28 00:52:40;;;;;;;8.52;6.60;;;-3276.40;86.50;;;;;;5024516;28;20022;-49
2023/01/28 00:55:07;;;;;;;8.40;7.50;;;-3276.40;86.50;;;;;;5012330;28;20026;-47
2023/01/28 00:57:34;;;;;;;9.27;7.53;;;-3276.30;86.40;;;;;;5033070;28;20043;-46
2023/01/28 01:00:02;;;;;;;9.10;7.82;;;-3276.30;86.30;;;;;;5038964;28;20088;-52
2023/01/28 01:02:29;;;;;;;11.18;7.88;;;-3276.30;86.40;;;;;;5021139;28;20467;-50
2023/01/28 01:05:01;;;;;;;10.43;7.75;;;-3276.30;86.40;;;;;;5041635;28;20032;-46
2023/01/28 01:07:40;;;;;;;12.65;8.10;;;-3276.30;86.40;;;;;;5052487;28;20063;-49
2023/01/28 01:10:10;;;;;;;;;;;-3276.20;86.50;;;;;;5029890;28;20066;-51
2023/01/28 01:12:38;;;;;;;12.55;7.97;;;-3276.20;86.60;;;;;;5003034;28;19913;-47
2023/01/28 01:15:09;;;;;;;13.07;9.38;;;-3276.20;86.60;;;;;;5017769;28;20105;-49
2023/01/28 01:17:44;;;;;;;18.38;12.15;;;-3276.20;86.50;;;;;;5026054;28;20053;-48
2023/01/28 01:20:38;;;;;;;19.45;10.52;;;-3276.10;86.50;;;;;;5023464;28;20052;-49
2023/01/28 01:23:04;;;;;;;19.55;11.43;;;-3276.10;86.50;;;;;;5021869;28;20347;-49
2023/01/28 01:25:33;;;;;;;18.77;13.55;;;-3276.10;86.80;;;;;;5031318;28;20100;-49
2023/01/28 01:28:00;;;;;;;18.55;11.63;;;-3276.10;87.00;;;;;;5031681;28;20052;-51
2023/01/28 01:30:26;;;;;;;17.83;10.98;;;-3276.10;87.00;;;;;;5026874;28;20041;-48
2023/01/28 01:32:51;;;;;;;16.15;11.45;;;-3276.00;87.00;;;;;;5034818;28;20034;-47
2023/01/28 01:35:17;;;;;;;18.27;11.00;;;-3276.00;86.90;;;;;;5035903;28;20051;-48
2023/01/28 01:37:45;;;;;;;15.48;11.18;;;-3276.00;87.10;;;;;;5056184;28;20040;-49
2023/01/28 01:40:12;;;;;;;14.77;9.93;;;-3276.00;87.30;;;;;;5031140;28;20100;-47
2023/01/28 01:42:41;;;;;;;16.17;10.75;;;-3276.00;87.20;;;;;;5024735;28;20032;-47
2023/01/28 01:45:13;;;;;;;16.05;11.68;;;-3276.00;87.10;;;;;;5035719;28;20415;-47
2023/01/28 01:48:09;;;;;;;15.70;11.18;;;-3275.90;87.20;;;;;;5030520;28;20037;-47
2023/01/28 01:50:39;;;;;;;17.58;11.48;;;-3275.90;87.60;;;;;;5042582;28;20059;-49
2023/01/28 01:53:15;;;;;;;14.93;10.02;;;-3275.90;87.60;;;;;;5019142;28;20064;-47
2023/01/28 01:55:46;;;;;;;15.15;10.90;;;-3275.90;87.50;;;;;;4999175;28;20022;-46
2023/01/28 01:58:19;;;;;;;14.18;10.82;;;-3275.90;87.50;;;;;;5014699;28;20349;-47
2023/01/28 02:00:47;;;;;;;13.98;10.45;;;-3275.80;87.30;;;;;;5015077;28;20038;-47
2023/01/28 02:03:17;;;;;;;16.23;11.48;;;-3275.80;87.60;;;;;;5032245;28;20068;-49
2023/01/28 02:05:45;;;;;;;15.35;10.98;;;-3275.90;87.70;;;;;;5023406;28;20054;-47
2023/01/28 02:08:22;;;;;;;12.55;9.80;;;-3275.90;87.80;;;;;;5025856;28;20034;-47
2023/01/28 02:11:02;;;;;;;14.85;10.50;;;-3275.80;87.80;;;;;;5021792;28;20053;-47
2023/01/28 02:13:41;;;;;;;13.45;9.05;;;-3275.80;87.80;;;;;;5026085;28;20034;-50
2023/01/28 02:16:09;;;;;;;14.05;10.27;;;-3275.80;87.80;;;;;;5014233;28;20029;-50
2023/01/28 02:18:37;;;;;;;12.30;9.65;;;-3275.80;87.60;;;;;;5034901;28;20063;-48
2023/01/28 02:21:40;;;;;;;14.20;10.52;;;-3275.70;87.50;;;;;;5030251;28;20037;-47
2023/01/28 02:24:28;;;;;;;12.90;9.70;;;-3275.70;87.70;;;;;;5038801;28;20057;-47
2023/01/28 02:26:59;;;;;;;14.93;10.02;;;-3275.70;87.90;;;;;;5033883;28;20097;-48
2023/01/28 02:29:44;;;;;;;11.70;9.10;;;-3275.70;87.70;;;;;;5025658;28;20768;-47
2023/01/28 02:32:15;;;;;;;13.07;9.43;;;-3275.70;87.60;;;;;;5015460;28;20069;-47
2023/01/28 02:35:17;;;;;;;14.55;9.90;;;-3275.60;87.50;;;;;;5014463;28;20042;-48
2023/01/28 02:37:51;;;;;;;12.30;9.50;;;-3275.60;87.90;;;;;;5000776;28;20045;-47
2023/01/28 02:41:05;;;;;;;16.20;11.18;;;-3275.60;87.60;;;;;;5014368;28;20363;-50
2023/01/28 02:43:46;;;;;;;12.48;9.05;;;-3275.60;87.70;;;;;;5032546;28;20053;-49
2023/01/28 02:49:17;;;;;;;;;;;-3275.60;87.60;;;;;;5022158;28;20036;-48
2023/01/28 02:52:01;;;;;;;16.02;10.55;;;-3275.50;87.50;;;;;;5013761;28;19917;-50
2023/01/28 02:54:42;;;;;;;14.43;9.82;;;-3275.50;87.50;;;;;;5014780;28;20026;-50
2023/01/28 02:57:36;;;;;;;13.85;9.82;;;-3275.50;87.70;;;;;;5027267;28;20036;-51
2023/01/28 03:00:22;;;;;;;13.85;9.30;;;-3275.50;87.60;;;;;;5022862;28;20108;-51
2023/01/28 03:03:01;;;;;;;16.77;11.23;;;-3275.40;87.50;;;;;;5034584;28;20105;-51
2023/01/28 03:06:02;;;;;;;16.57;10.40;;;-3275.40;87.50;;;;;;5033177;28;20060;-49
2023/01/28 03:39:06;;;;;;;15.02;10.50;;;-3275.30;88.30;;;;;;5014340;28;20105;-47
2023/01/28 03:41:31;;;;;;;14.07;10.85;;;-3275.30;88.30;;;;;;5024520;28;20029;-47
2023/01/28 03:46:43;;;;;;;13.10;9.85;;;-3275.40;88.60;;;;;;5030582;28;20387;-47
2023/01/28 03:49:11;;;;;;;14.57;10.38;;;-3275.40;88.70;;;;;;5032145;28;20036;-47
2023/01/28 03:51:38;;;;;;;11.90;10.30;;;-3275.40;88.60;;;;;;5027440;28;20041;-49
2023/01/28 03:54:04;;;;;;;14.52;10.55;;;-3275.50;88.70;;;;;;5012819;28;20029;-47
2023/01/28 03:56:33;;;;;;;15.00;11.80;;;-3275.50;88.70;;;;;;5035824;28;20065;-49
2023/01/28 03:59:00;;;;;;;14.18;11.55;;;-3275.50;88.60;;;;;;5024535;28;20083;-47
2023/01/28 04:01:28;;;;;;;13.98;10.13;;;-3275.50;88.50;;;;;;5020493;28;20034;-49
2023/01/28 04:03:54;;;;;;;15.30;10.73;;;-3275.50;88.40;;;;;;5013392;28;20030;-47
2023/01/28 04:06:21;;;;;;;15.43;11.20;;;-3275.50;88.60;;;;;;5012720;28;20026;-47
2023/01/28 04:08:52;;;;;;;13.57;10.50;;;-3275.50;88.50;;;;;;5012604;28;20034;-47
2023/01/28 04:11:24;;;;;;;12.98;10.45;;;-3275.50;88.50;;;;;;5013506;28;20041;-48
2023/01/28 04:13:51;;;;;;;12.80;9.80;;;-3275.50;88.70;;;;;;5026684;28;20032;-47
2023/01/28 04:16:19;;;;;;;14.98;10.43;;;-3275.50;88.60;;;;;;5019993;28;20172;-54
2023/01/28 04:18:45;;;;;;;14.43;11.35;;;-3275.40;88.40;;;;;;5012171;28;20424;-50
2023/01/28 04:21:13;;;;;;;14.77;10.55;;;-3275.40;88.40;;;;;;5012220;28;20037;-48
2023/01/28 04:23:39;;;;;;;12.88;9.73;;;-3275.40;88.40;;;;;;5013182;28;20050;-48
2023/01/28 04:26:09;;;;;;;14.38;11.57;;;-3275.30;88.40;;;;;;5012343;28;20026;-48
2023/01/28 04:28:36;;;;;;;;;;;-3275.30;88.30;;;;;;5013476;28;20032;-50
2023/01/28 04:31:03;;;;;;;15.13;10.93;;;-3275.30;88.30;;;;;;5013061;28;20364;-47
2023/01/28 04:33:30;;;;;;;12.73;10.30;;;-3275.30;88.20;;;;;;5012720;28;20336;-51
2023/01/28 04:35:58;;;;;;;15.93;12.15;;;-3275.30;88.50;;;;;;5013185;28;20021;-47
2023/01/28 04:38:26;;;;;;;15.30;11.90;;;-3275.30;88.60;;;;;;5011883;28;20360;-49
2023/01/28 04:40:53;;;;;;;14.32;10.40;;;-3275.30;88.70;;;;;;5012259;28;20422;-51
2023/01/28 04:43:21;;;;;;;14.27;10.63;;;-3275.30;88.60;;;;;;5012863;28;20360;-51
2023/01/28 04:45:50;;;;;;;14.40;10.43;;;-3275.30;88.60;;;;;;5013266;28;20032;-52
2023/01/28 04:48:16;;;;;;;13.05;10.40;;;-3275.30;88.50;;;;;;5012157;28;20048;-48
2023/01/28 04:50:43;;;;;;;17.85;11.75;;;-3275.30;88.50;;;;;;5012236;28;20041;-50
2023/01/28 04:53:11;;;;;;;14.75;11.85;;;-3275.30;88.50;;;;;;5011798;28;20026;-49
2023/01/28 04:55:41;;;;;;;16.13;12.27;;;-3275.30;88.80;;;;;;5029364;28;20036;-49
2023/01/28 04:58:10;;;;;;;16.27;10.30;;;-3275.30;89.10;;;;;;5030890;28;20033;-48
2023/01/28 05:00:37;;;;;;;15.32;11.43;;;-3275.30;89.10;;;;;;5029704;28;20397;-47
2023/01/28 05:03:04;;;;;;;13.13;10.38;;;-3275.30;89.20;;;;;;5018363;28;20025;-48
2023/01/28 05:05:31;;;;;;;17.83;11.73;;;-3275.40;89.10;;;;;;5014817;28;20057;-47
2023/01/28 05:07:58;;;;;;;15.13;11.00;;;-3275.30;88.90;;;;;;5016916;28;20022;-47
2023/01/28 05:10:28;;;;;;;14.82;11.52;;;-3275.30;88.90;;;;;;5016732;28;20049;-47
2023/01/28 05:12:55;;;;;;;13.55;10.48;;;-3275.30;88.60;;;;;;5016778;28;20026;-48
2023/01/28 05:15:24;;;;;;;18.90;12.45;;;-3275.20;88.50;;;;;;5016910;28;20030;-48
2023/01/28 05:17:54;;;;;;;14.13;10.60;;;-3275.20;88.80;;;;;;5015705;28;20026;-48
2023/01/28 05:20:25;;;;;;;14.82;11.27;;;-3275.20;88.90;;;;;;4999641;28;20096;-48
2023/01/28 05:22:57;;;;;;;14.63;10.77;;;-3275.10;89.00;;;;;;5015542;28;20030;-49
2023/01/28 05:25:22;;;;;;;14.57;11.48;;;-3275.20;89.10;;;;;;5015821;28;20025;-48
2023/01/28 05:27:51;;;;;;;14.20;11.57;;;-3275.20;89.00;;;;;;5046604;28;20048;-47
2023/01/28 05:30:21;;;;;;;17.00;12.70;;;-3275.20;89.10;;;;;;5038073;28;20045;-49
2023/01/28 05:32:53;;;;;;;18.17;12.32;;;-3275.20;89.20;;;;;;5020410;28;20076;-48
2023/01/28 05:35:20;;;;;;;18.05;12.50;;;-3275.20;89.10;;;;;;5023387;28;20037;-48
2023/01/28 05:37:47;;;;;;;15.18;12.02;;;-3275.20;89.10;;;;;;5025479;28;20448;-47
2023/01/28 05:40:16;;;;;;;16.13;12.80;;;-3275.20;89.30;;;;;;5030763;28;20025;-51
2023/01/28 05:42:42;;;;;;;15.27;11.90;;;-3275.30;89.40;;;;;;5035070;28;20187;-50
2023/01/28 05:45:09;;;;;;;16.83;13.48;;;-3275.30;89.40;;;;;;5023826;28;20132;-48
2023/01/28 05:47:35;;;;;;;17.27;12.60;;;-3275.40;89.20;;;;;;5015298;28;20026;-48
2023/01/28 05:50:03;;;;;;;16.35;12.80;;;-3275.40;89.20;;;;;;5015084;28;20335;-49
2023/01/28 05:52:32;;;;;;;16.35;13.18;;;-3275.40;89.30;;;;;;5034665;28;20055;-47
2023/01/28 05:55:00;;;;;;;15.32;12.35;;;-3275.40;89.10;;;;;;5043782;28;20029;-47
2023/01/28 05:57:26;;;;;;;17.70;13.27;;;-3275.40;89.20;;;;;;5028787;28;20128;-47
2023/01/28 05:59:54;;;;;;;18.33;13.65;;;-3275.40;89.10;;;;;;5025773;28;20031;-50
2023/01/28 06:02:22;;;;;;;15.18;12.13;;;-3275.40;89.00;;;;;;5025593;28;20374;-48
2023/01/28 06:04:49;;;;;;;14.77;12.07;;;-3275.40;89.10;;;;;;5023686;28;20041;-48
2023/01/28 06:07:19;;;;;;;15.38;12.40;;;-3275.50;89.10;;;;;;5025391;28;20026;-51
2023/01/28 06:09:47;;;;;;;15.48;11.82;;;-3275.40;89.00;;;;;;5018283;28;20593;-47
2023/01/28 06:12:13;;;;;;;16.90;12.10;;;-3275.40;89.00;;;;;;5020801;28;20064;-48
2023/01/28 06:14:41;;;;;;;17.60;13.70;;;-3275.50;89.00;;;;;;5019018;28;20033;-49
2023/01/28 06:17:08;;;;;;;15.43;11.98;;;-3275.50;88.90;;;;;;5033550;28;20034;-47
2023/01/28 06:19:36;;;;;;;15.82;12.48;;;-3275.50;88.90;;;;;;5014448;28;20451;-48
2023/01/28 06:22:03;;;;;;;15.30;11.40;;;-3275.50;88.90;;;;;;5014969;28;20485;-50
2023/01/28 06:24:30;;;;;;;19.05;12.10;;;-3275.40;88.80;;;;;;5015164;28;20033;-50
2023/01/28 06:26:58;;;;;;;16.30;13.27;;;-3275.50;88.80;;;;;;5014121;28;20037;-49
2023/01/28 06:29:24;;;;;;;15.70;12.32;;;-3275.40;88.70;;;;;;5015388;28;20114;-50
2023/01/28 06:31:50;;;;;;;16.02;11.60;;;-3275.40;88.70;;;;;;5015136;28;20109;-46
2023/01/28 06:34:17;;;;;;;15.73;11.70;;;-3275.40;88.70;;;;;;5015148;28;20034;-47
2023/01/28 06:36:56;;;;;;;16.05;11.40;;;-3275.40;88.70;;;;;;5014148;28;20026;-47
2023/01/28 06:39:27;;;;;;;13.25;11.27;;;-3275.40;88.70;;;;;;5014672;28;20046;-47
2023/01/28 06:41:55;;;;;;;18.75;13.20;;;-3275.40;88.70;;;;;;5015042;28;20046;-47
2023/01/28 06:44:23;;;;;;;16.60;11.77;;;-3275.40;88.90;;;;;;5015260;28;20034;-48
2023/01/28 06:46:51;;;;;;;17.92;12.27;;;-3275.40;88.90;;;;;;5015103;28;20030;-49
2023/01/28 06:49:17;;;;;;;16.52;12.18;;;-3275.40;89.00;;;;;;5014431;28;20117;-47
2023/01/28 06:51:45;;;;;;;16.40;11.88;;;-3275.50;89.00;;;;;;5014575;28;20069;-47
2023/01/28 06:54:12;;;;;;;18.15;12.82;;;-3275.50;88.90;;;;;;5013753;28;20471;-48
2023/01/28 06:56:38;;;;;;;13.90;11.48;;;-3275.40;88.90;;;;;;5014905;28;20454;-51
2023/01/28 06:59:03;;;;;;;15.55;11.02;;;-3275.40;88.80;;;;;;5014684;28;20030;-50
2023/01/28 07:01:34;;;;;;;15.02;11.52;;;-3275.40;88.80;;;;;;5014765;28;20030;-47
2023/01/28 07:04:02;;;;;;;14.88;11.20;;;-3275.40;88.70;;;;;;5014521;28;20052;-47
2023/01/28 07:06:29;;;;;;;18.85;12.35;;;-3275.40;88.70;;;;;;5013871;28;20026;-47
2023/01/28 07:08:55;;;;;;;14.63;11.50;;;-3275.40;88.60;;;;;;5013571;28;20036;-47
2023/01/28 07:11:22;;;;;;;14.20;10.80;;;-3275.40;88.60;;;;;;5024298;28;20029;-50
2023/01/28 07:13:49;;;;;;;16.90;12.13;;;-3275.40;88.60;;;;;;5033986;28;20021;-47
2023/01/28 07:16:15;;;;;;;14.05;11.13;;;-3275.30;88.60;;;;;;5030340;28;20029;-47
2023/01/28 07:18:42;;;;;;;19.70;12.27;;;-3275.30;88.70;;;;;;5014889;28;20072;-47
2023/01/28 07:21:12;;;;;;;14.30;10.52;;;-3275.30;88.80;;;;;;5014586;28;20364;-47
2023/01/28 07:23:38;;;;;;;15.02;11.23;;;-3275.30;88.80;;;;;;5013543;28;20566;-48
2023/01/28 07:26:05;;;;;;;15.73;11.13;;;-3275.30;88.80;;;;;;5034062;28;20037;-48
2023/01/28 07:28:31;;;;;;;16.40;11.80;;;-3275.30;88.70;;;;;;5030914;28;20083;-47
2023/01/28 07:30:58;;;;;;;14.82;11.40;;;-3275.30;88.90;;;;;;5032515;28;20037;-48
2023/01/28 07:33:26;;;;;;;15.20;12.27;;;-3275.20;88.80;;;;;;5033816;28;20636;-47
2023/01/28 07:35:53;;;;;;;13.10;10.98;;;-3275.30;89.00;;;;;;5033252;28;20017;-47
2023/01/28 07:38:21;;;;;;;15.57;11.30;;;-3275.30;89.00;;;;;;5031183;28;20026;-49
2023/01/28 07:40:50;;;;;;;17.35;11.52;;;-3275.30;89.00;;;;;;5033315;28;20520;-47
2023/01/28 07:43:17;;;;;;;15.75;11.90;;;-3275.30;88.90;;;;;;5029464;28;20025;-46
2023/01/28 07:45:46;;;;;;;15.13;11.20;;;-3275.30;89.10;;;;;;5012938;28;20045;-47
2023/01/28 07:48:15;;;;;;;14.13;10.65;;;-3275.30;89.00;;;;;;5031254;28;20104;-50
2023/01/28 07:50:42;;;;;;;15.60;13.00;;;-3275.30;88.90;;;;;;5021428;28;20038;-52
2023/01/28 07:53:13;;;;;;;13.85;10.90;;;-3275.30;88.90;;;;;;5025933;28;20033;-47
2023/01/28 07:55:40;;;;;;;18.52;11.20;;;-3275.30;88.90;;;;;;5033215;28;20030;-51
2023/01/28 07:58:09;;;;;;;14.40;11.82;;;-3275.40;88.80;;;;;;5027631;28;20022;-48
2023/01/28 08:00:45;;;;;;;13.38;10.70;;;-3275.40;88.90;;;;;;5015369;28;20082;-49
2023/01/28 08:03:15;;;;;;;16.23;10.93;;;-3275.40;89.00;;;;;;5030837;28;20033;-48
2023/01/28 08:05:52;;;;;;;15.15;11.05;;;-3275.50;89.00;;;;;;5012144;28;20030;-51
2023/01/28 08:08:22;;;;;;;12.25;10.23;;;-3275.50;88.90;;;;;;5027758;28;20034;-48
2023/01/28 08:10:48;;;;;;;14.15;11.85;;;-3275.60;88.90;;;;;;5022688;28;20042;-46
2023/01/28 08:13:17;;;;;;;12.43;10.32;;;-3275.70;89.00;;;;;;5017935;28;20068;-47
2023/01/28 08:15:48;;;;;;;14.55;11.15;;;-3275.80;88.90;;;;;;5020237;28;20026;-47
2023/01/28 08:18:16;;;;;;;17.38;12.02;;;-3275.80;88.90;;;;;;5013131;28;20160;-47
2023/01/28 08:20:45;;;;;;;14.25;10.98;;;-3275.90;88.70;;;;;;5013167;28;20471;-47
2023/01/28 08:23:33;;;;;;;14.75;10.18;;;-3275.90;88.50;;;;;;5014351;28;20040;-47
2023/01/28 08:26:00;;;;;;;14.85;11.13;;;-3275.90;88.50;;;;;;5027484;28;20022;-49
2023/01/28 08:28:26;;;;;;;15.13;10.90;;;-3276.00;88.50;;;;;;5014382;28;20021;-48
2023/01/28 08:30:52;;;;;;;14.10;10.52;;;-3276.00;88.60;;;;;;5018824;28;20144;-47
2023/01/28 08:33:19;;;;;;;15.25;11.75;;;-3276.10;88.60;;;;;;5025807;28;20486;-49
2023/01/28 08:35:47;;;;;;;13.68;10.13;;;-3276.10;88.60;;;;;;5020114;28;20030;-47
2023/01/28 08:38:16;;;;;;;14.13;10.43;;;-3276.20;88.60;;;;;;5022657;28;20037;-47
2023/01/28 08:40:42;;;;;;;12.73;10.10;;;-3276.20;88.60;;;;;;5029128;28;20025;-47
2023/01/28 08:43:09;;;;;;;16.88;11.48;;;-3276.30;88.60;;;;;;5025354;28;20030;-47
2023/01/28 08:45:39;;;;;;;13.65;10.45;;;-3276.40;88.40;;;;;;5030075;28;20370;-48
2023/01/28 08:48:09;;;;;;;14.48;10.73;;;-3276.40;88.40;;;;;;5031007;28;20083;-50
2023/01/28 08:50:39;;;;;;;15.27;10.63;;;-3276.60;88.60;;;;;;5026609;28;20026;-46
2023/01/28 08:53:12;;;;;;;16.58;11.57;;;-3276.60;88.40;;;;;;5027292;28;20037;-48
2023/01/28 08:55:39;;;;;;;15.95;11.27;;;0.00;88.40;;;;;;5012913;28;20030;-47
2023/01/28 08:58:10;;;;;;;15.43;10.73;;;0.00;88.50;;;;;;5012254;28;20078;-46
2023/01/28 09:00:38;;;;;;;14.68;11.25;;;0.10;88.30;;;;;;5012577;28;20113;-50
2023/01/28 09:03:05;;;;;;;12.95;10.02;;;0.20;88.20;;;;;;5011856;28;20398;-46
2023/01/28 09:05:36;;;;;;;13.77;10.98;;;0.30;88.10;;;;;;5012763;28;20064;-46
2023/01/28 09:08:09;;;;;;;15.10;10.60;;;0.50;88.20;;;;;;5011999;28;20425;-45
2023/01/28 09:10:36;;;;;;;13.32;10.38;;;0.60;87.90;;;;;;5011132;28;20062;-46
2023/01/28 09:13:09;;;;;;;12.90;10.50;;;0.90;88.70;;;;;;5016490;28;20080;-47
2023/01/28 09:15:36;;;;;;;14.30;10.65;;;1.00;87.80;;;;;;5025507;28;20029;-50
2023/01/28 09:18:04;;;;;;;14.75;10.40;;;1.20;87.40;;;;;;5014515;28;20056;-46
2023/01/28 09:20:32;;;;;;;12.25;10.80;;;1.40;87.10;;;;;;5025371;28;20033;-44
2023/01/28 09:23:03;;;;;;;13.00;10.32;;;1.60;86.70;;;;;;5020821;28;20049;-48
2023/01/28 09:25:29;;;;;;;11.38;9.80;;;1.70;86.50;;;;;;5026272;28;20108;-44
2023/01/28 09:27:58;;;;;;;11.73;9.48;;;1.80;86.20;;;;;;5030214;28;20036;-46
2023/01/28 09:30:26;;;;;;;13.07;10.05;;;1.90;86.20;;;;;;5014821;28;20112;-46
2023/01/28 09:32:54;;;;;;;11.80;9.75;;;2.20;86.30;;;;;;5016608;28;20489;-44
2023/01/28 09:35:24;;;;;;;15.00;11.75;;;2.30;85.90;;;;;;5030639;28;20033;-49
2023/01/28 09:37:55;;;;;;;11.95;9.50;;;2.20;85.60;;;;;;5019867;28;20044;-45
2023/01/28 09:40:41;;;;;;;10.10;9.00;;;2.30;85.80;;;;;;5013843;28;20038;-49
2023/01/28 09:43:41;;;;;;;11.27;8.75;;;2.30;85.90;;;;;;4996522;28;20132;-45
2023/01/28 09:46:11;;;;;;;10.52;8.73;;;2.40;85.90;;;;;;5031953;28;20091;-45
2023/01/28 09:48:50;;;;;;;10.93;9.38;;;2.40;86.20;;;;;;4983965;28;20029;-49
2023/01/28 09:51:56;;;;;;;9.93;8.50;;;2.50;86.10;;;;;;5012184;28;20029;-45
2023/01/28 09:54:58;;;;;;;12.63;8.70;;;2.50;86.00;;;;;;5033337;28;20283;-48
2023/01/28 09:57:46;;;;;;;12.32;8.90;;;2.40;86.00;;;;;;5031919;28;20071;-46
2023/01/28 10:00:23;;;;;;;12.63;8.70;;;2.40;86.30;;;;;;5035147;28;20060;-45
2023/01/28 10:03:21;;;;;;;9.77;8.18;;;2.40;86.50;;;;;;5024151;28;20105;-46
2023/01/28 10:06:18;;;;;;;10.43;8.75;;;2.50;86.70;;;;;;5021610;28;20033;-45
2023/01/28 10:09:10;;;;;;;13.88;9.50;;;2.60;87.10;;;;;;5028765;28;20029;-47
2023/01/28 10:12:09;;;;;;;10.73;8.35;;;2.60;86.50;;;;;;5034940;28;20057;-46
2023/01/28 10:14:51;;;;;;;;;;;2.60;86.70;;;;;;5015984;28;20048;-46
2023/01/28 10:17:41;;;;;;;11.15;8.35;;;2.70;86.80;;;;;;5026174;28;19917;-46
2023/01/28 10:20:32;;;;;;;11.07;8.93;;;2.60;86.60;;;;;;5026601;28;20048;-46
2023/01/28 10:23:22;;;;;;;11.98;9.35;;;2.70;86.90;;;;;;5031119;28;20045;-46
2023/01/28 10:25:49;;;;;;;13.23;8.90;;;2.80;86.80;;;;;;5031395;28;20104;-46
2023/01/28 10:28:29;;;;;;;14.63;9.25;;;2.90;87.00;;;;;;5034333;28;20036;-47
2023/01/28 10:30:56;;;;;;;12.38;8.68;;;3.00;86.70;;;;;;5030973;28;20108;-46
2023/01/28 10:33:34;;;;;;;12.23;8.80;;;3.00;86.60;;;;;;5022862;28;20072;-46
2023/01/28 10:36:01;;;;;;;11.60;8.57;;;3.00;86.50;;;;;;4998002;28;20059;-46
2023/01/28 10:38:30;;;;;;;13.43;7.80;;;3.00;86.50;;;;;;5015056;28;20041;-47
2023/01/28 10:41:01;;;;;;;10.52;8.50;;;3.10;86.80;;;;;;5014030;28;20088;-47
2023/01/28 10:43:35;;;;;;;9.73;7.90;;;3.20;86.40;;;;;;5014354;28;20508;-47
2023/01/28 10:46:08;;;;;;;10.15;8.13;;;3.20;86.20;;;;;;5018592;28;20046;-46
2023/01/28 10:48:44;;;;;;;10.80;8.77;;;3.20;86.30;;;;;;5015888;28;20058;-46
2023/01/28 10:51:11;;;;;;;9.27;7.75;;;3.40;86.60;;;;;;5013703;28;20033;-52
2023/01/28 10:53:55;;;;;;;10.23;8.23;;;3.50;86.20;;;;;;5015001;28;20026;-46
2023/01/28 10:56:31;;;;;;;8.68;7.65;;;3.70;86.40;;;;;;5015041;28;20022;-48
2023/01/28 10:59:16;;;;;;;9.40;7.63;;;3.90;86.30;;;;;;5014618;28;20033;-49
2023/01/28 11:01:43;;;;;;;11.23;7.80;;;3.90;85.80;;;;;;5001224;28;20846;-46
2023/01/28 11:04:35;;;;;;;12.32;8.70;;;4.00;85.50;;;;;;5034195;28;20451;-48
2023/01/28 11:07:04;;;;;;;12.10;7.45;;;4.10;85.00;;;;;;5026556;28;20045;-48
2023/01/28 11:09:50;;;;;;;10.88;7.32;;;4.20;84.90;;;;;;5013465;28;20140;-50
2023/01/28 11:12:40;;;;;;;8.35;6.85;;;4.20;84.40;;;;;;5013453;28;20463;-48
2023/01/28 11:15:17;;;;;;;12.35;7.20;;;4.20;84.30;;;;;;5032719;28;20030;-50
2023/01/28 11:17:54;;;;;;;10.80;7.32;;;4.20;83.90;;;;;;5014112;28;20065;-50
2023/01/28 11:20:24;;;;;;;9.60;7.93;;;4.30;84.10;;;;;;5015923;28;20090;-50
2023/01/28 11:22:53;;;;;;;8.70;6.88;;;4.20;84.00;;;;;;5014910;28;20049;-50
2023/01/28 11:25:49;;;;;;;7.85;6.47;;;4.20;83.70;;;;;;5025402;28;20095;-51
2023/01/28 11:28:19;;;;;;;9.02;6.43;;;4.20;83.90;;;;;;5014247;28;20148;-47
2023/01/28 11:30:53;;;;;;;9.32;6.30;;;4.30;84.10;;;;;;5012336;28;20030;-46
2023/01/28 11:33:41;;;;;;;8.88;6.47;;;4.30;83.50;;;;;;5013208;28;20038;-46
2023/01/28 11:36:27;;;;;;;8.38;6.28;;;4.20;83.60;;;;;;5014028;28;20022;-49
2023/01/28 11:39:08;;;;;;;11.10;7.10;;;4.20;84.10;;;;;;5013798;28;20037;-49
2023/01/28 11:41:37;;;;;;;9.88;6.45;;;4.20;84.10;;;;;;5032142;28;20029;-47
2023/01/28 11:44:34;;;;;;;12.10;9.18;;;4.20;84.20;;;;;;4998842;28;20048;-46
2023/01/28 11:47:21;;;;;;;10.75;6.85;;;4.30;84.40;;;;;;5030138;28;20092;-48
2023/01/28 11:50:20;;;;;;;10.20;7.47;;;4.30;84.40;;;;;;5021299;28;20042;-46
2023/01/28 11:53:18;;;;;;;9.90;6.53;;;4.30;84.60;;;;;;5013828;28;20045;-46
2023/01/28 11:56:01;;;;;;;9.00;6.90;;;4.30;83.70;;;;;;5013607;28;20037;-47
2023/01/28 11:58:45;;;;;;;11.60;7.55;;;4.40;83.80;;;;;;5027450;28;20025;-46
2023/01/28 12:01:38;;;;;;;9.00;5.50;;;4.40;83.90;;;;;;5033620;28;20051;-48
2023/01/28 12:04:28;;;;;;;9.68;5.80;;;4.40;83.60;;;;;;5017810;28;20104;-47
2023/01/28 12:07:30;;;;;;;7.88;5.60;;;4.40;83.80;;;;;;5026556;28;20381;-48
2023/01/28 12:10:12;;;;;;;8.43;5.50;;;4.40;83.50;;;;;;5033090;28;20049;-48
2023/01/28 12:12:50;;;;;;;11.60;7.15;;;4.40;83.80;;;;;;5024226;28;20029;-46
2023/01/28 12:15:45;;;;;;;8.40;5.65;;;4.50;84.00;;;;;;5032533;28;20044;-48
2023/01/28 12:18:43;;;;;;;7.25;5.20;;;4.60;84.00;;;;;;5032313;28;20037;-47
2023/01/28 12:21:36;;;;;;;7.35;5.68;;;4.70;84.00;;;;;;5012101;28;20113;-46
2023/01/28 12:24:24;;;;;;;8.32;4.97;;;4.80;83.90;;;;;;5021680;28;20474;-46
2023/01/28 12:27:19;;;;;;;8.57;5.47;;;4.80;83.20;;;;;;5012099;28;20042;-46
2023/01/28 12:30:00;;;;;;;7.22;5.30;;;4.80;82.70;;;;;;5012998;28;20033;-47
2023/01/28 12:32:52;;;;;;;7.28;5.25;;;4.90;83.10;;;;;;5030471;28;20021;-49
2023/01/28 12:35:43;;;;;;;7.35;4.88;;;5.00;83.10;;;;;;5014337;28;20070;-46
2023/01/28 12:38:34;;;;;;;7.63;4.50;;;5.10;83.00;;;;;;5013202;28;20482;-47
2023/01/28 12:41:22;;;;;;;6.60;4.53;;;5.30;83.00;;;;;;5012016;28;20069;-46
2023/01/28 12:44:12;;;;;;;6.07;4.57;;;5.30;82.00;;;;;;5021863;28;20383;-49
2023/01/28 12:46:54;;;;;;;6.57;5.00;;;5.30;81.80;;;;;;5029335;28;20056;-49
2023/01/28 12:49:54;;;;;;;7.40;5.35;;;5.20;81.60;;;;;;5012611;28;20594;-46
2023/01/28 12:52:44;;;;;;;7.10;5.50;;;5.20;81.50;;;;;;5013172;28;20115;-44
2023/01/28 12:55:29;;;;;;;;;;;5.20;81.70;;;;;;5017202;28;20103;-46
2023/01/28 12:58:20;;;;;;;8.30;5.47;;;5.10;81.80;;;;;;5017468;28;19913;-49
2023/01/28 13:01:08;;;;;;;7.57;4.53;;;5.00;82.00;;;;;;5011783;28;20102;-48
2023/01/28 13:03:49;;;;;;;8.02;5.70;;;5.00;82.40;;;;;;5008817;28;20034;-48
2023/01/28 13:06:24;;;;;;;6.97;5.05;;;4.90;82.70;;;;;;5031292;28;20402;-47
2023/01/28 13:08:59;;;;;;;6.88;5.45;;;4.90;82.90;;;;;;5031291;28;20061;-46
2023/01/28 13:11:34;;;;;;;8.07;5.18;;;4.90;83.10;;;;;;5010977;28;20430;-46
2023/01/28 13:14:10;;;;;;;6.40;4.55;;;4.90;82.80;;;;;;5011724;28;20022;-46
2023/01/28 13:16:53;;;;;;;7.50;4.13;;;4.90;83.10;;;;;;5012696;28;20026;-46
2023/01/28 13:19:47;;;;;;;9.75;4.05;;;4.80;83.40;;;;;;5018181;28;20348;-46
2023/01/28 13:22:34;;;;;;;8.50;4.63;;;4.70;83.30;;;;;;5012620;28;20034;-45
2023/01/28 13:25:28;;;;;;;7.50;4.45;;;4.70;83.20;;;;;;5012461;28;20049;-47
2023/01/28 13:27:55;;;;;;;8.60;4.75;;;4.80;83.50;;;;;;5019158;28;20029;-47
2023/01/28 13:30:52;;;;;;;7.20;5.03;;;4.80;84.00;;;;;;5015468;28;20037;-50